Adrian, TX

6:49 PM CDT on August 31, 2015 (GMT -0500)
Tucumcari Municipal | | Change Station
CLOSE
Current Station
Airport
Location: Tucumcari,
Elevation: 4065 ft
Nearby Weather Stations

Elev 4065 ft 35.18 °N, 103.60 °W | Updated 56 minutes ago

Clear
Clear
98 °F
Feels Like 98 °F
N
13
Wind Variable Wind from SSW

Today
High -- | Low -- °F
--% Chance of Precip.
Yesterday
High -- | Low -- °F
Precip. -- in
7:22 AM 8:20 PM
Waning Gibbous, 93% visible
Pressure 29.72 in
Visibility 10.0 miles
Clouds Clear
Dew Point 47 °F
Humidity 18%
Rainfall 0.00 in
Snow Depth Not available.
UV 3 out of 12
Pollen 9.70 out of 12
Air Quality Not available.
Flu Activity Not available.
METAR KTCC 312253Z AUTO 20011KT 10SM CLR 37/08 A2994 RMK AO2 SLP062 T03670083
Pressure 29.72 in
Visibility 10.0 miles
Clouds Clear
Dew Point 47 °F
Humidity 18%
Rainfall 0.00 in
Snow Depth Not available.
UV 3 out of 12
Pollen 9.70 out of 12
Air Quality Not available.
Flu Activity Not available.
METAR KTCC 312253Z AUTO 20011KT 10SM CLR 37/08 A2994 RMK AO2 SLP062 T03670083

10-Day Weather Forecast

×

Almanac

Astronomy

Aug. 31, 2015 Rise Set
Actual Time
Civil Twilight
Nautical Twilight
Astronomical Twilight
Moon
Length of Visible Light
Length of Day
Tomorrow will be .
, % of the Moon is Illuminated

Today's Extremes

State Highs State Lows

Community

WunderPhotos

Upload Photos

1,851,395 photos uploaded!

WunderBlogs® & News

Nearby

Air Quality

  Air Quality AQ Index Pollutant
Not available.

Snow Depth

Station Depth Elevation

Earthquake Activity

City Distance Mag. Time & Date
Minimum magnitude displayed is 2.5.

Coastal Water Temperatures

Place Temperature

Stations

Nearby Weather Stations

Station Location Temp. Windchill Dew Point Humidity Wind Precip. Elev Updated Type